LEBA/ODB METAR and TAF weather

Enter ICAO airport designator
Station Type Date Time Source
LEBA METAR 2018/12/10 13:00 UTC NOAA

LEBA 101300Z 06010KT CAVOK 19/03 Q1026


Station Type Date Time Source
LEBA Decoded METAR 2018/12/10 13:00 UTC NOAA

Cordoba / Aeropuerto, Spain (LEBA) 37-51N 004-51W 92M
Dec 10, 2018 - 08:00 AM EST / 2018.12.10 1300 UTC
Wind: from the ENE (060 degrees) at 12 MPH (10 KT):0
Visibility: greater than 7 mile(s):0
Temperature: 66 F (19 C)
Dew Point: 37 F (3 C)
Relative Humidity: 34%
Pressure (altimeter): 30.30 in. Hg (1026 hPa)
ob: LEBA 101300Z 06010KT CAVOK 19/03 Q1026
cycle: 13

Station Type Date Time Source
LEBA TAF 2015/01/24 09:27 UTC NOAA

TAF TAF LEBA 240800Z 2409/2421 VRB02KT CAVOK


Example: see airport list